Time;durP1;ratioP1;P1;durP2;ratioP2;P2;SDS_P1;SDS_P2;PMS_P1;PMS_P2;Temp;Humidity;BMP_temperature;BMP_pressure;BME280_temperature;BME280_humidity;BME280_pressure;Samples;Min_cycle;Max_cycle;Signal;HPM_P1;HPM_P2
2022/05/06 00:01:52;;;;;;;24.53;20.30;;;;;;;18.12;57.00;99275.56;7003017;28;20238;-80
2022/05/06 00:05:14;;;;;;;27.17;20.97;;;;;;;18.12;57.35;99291.94;7003542;28;20267;-80
2022/05/06 00:08:36;;;;;;;26.60;21.37;;;;;;;18.00;57.12;99289.25;7003202;28;20687;-80
2022/05/06 00:11:58;;;;;;;27.07;20.97;;;;;;;18.07;57.20;99283.66;7002733;28;20229;-80
2022/05/06 00:15:19;;;;;;;32.30;21.43;;;;;;;18.01;57.35;99276.44;7002825;28;20233;-80
2022/05/06 00:18:42;;;;;;;30.57;22.37;;;;;;;18.04;57.05;99284.16;7002087;28;20214;-79
2022/05/06 00:22:04;;;;;;;30.47;20.40;;;;;;;17.99;57.45;99273.94;7002641;28;20303;-80
2022/05/06 00:25:26;;;;;;;25.53;20.13;;;;;;;18.07;57.14;99286.38;7003301;28;20233;-80
2022/05/06 00:28:47;;;;;;;28.57;20.47;;;;;;;17.88;57.43;99272.06;7002705;28;20198;-80
2022/05/06 00:32:10;;;;;;;28.73;21.37;;;;;;;17.61;57.48;99231.91;7003465;28;20224;-80
2022/05/06 00:35:32;;;;;;;24.77;21.03;;;;;;;18.05;57.26;99277.63;7002980;28;20251;-79
2022/05/06 00:38:54;;;;;;;24.80;20.47;;;;;;;17.97;57.19;99272.53;7005824;28;20277;-80
2022/05/06 00:42:16;;;;;;;28.03;21.03;;;;;;;18.01;57.20;99285.47;7002801;28;20228;-79
2022/05/06 00:45:45;;;;;;;25.23;20.97;;;;;;;17.95;57.37;99278.25;7002156;28;20660;-80
2022/05/06 00:49:08;;;;;;;29.53;22.10;;;;;;;17.79;57.50;99259.03;7002352;28;20211;-80
2022/05/06 00:52:31;;;;;;;30.00;20.77;;;;;;;17.92;57.27;99275.16;7002476;28;20227;-79
2022/05/06 00:55:55;;;;;;;28.17;21.27;;;;;;;17.96;57.10;99274.44;7003163;28;20293;-80
2022/05/06 00:59:18;;;;;;;26.97;21.97;;;;;;;17.87;57.28;99259.50;7002331;28;20306;-80
2022/05/06 01:02:39;;;;;;;28.50;21.57;;;;;;;17.97;57.37;99270.63;7007695;28;20231;-81
2022/05/06 01:06:04;;;;;;;27.70;21.33;;;;;;;18.01;57.01;99266.38;7007917;28;20306;-81
2022/05/06 01:09:26;;;;;;;28.00;21.67;;;;;;;18.01;56.75;99276.44;7008437;28;20207;-81
2022/05/06 01:12:50;;;;;;;27.50;21.07;;;;;;;18.05;57.02;99277.63;7008012;28;20375;-80
2022/05/06 01:16:12;;;;;;;33.87;22.90;;;;;;;17.92;56.94;99256.88;7007736;28;20207;-80
2022/05/06 01:19:33;;;;;;;30.57;22.17;;;;;;;18.02;57.10;99273.47;7007818;28;20291;-80
2022/05/06 01:22:58;;;;;;;25.73;20.70;;;;;;;18.00;57.16;99270.16;7008361;28;20582;-80
2022/05/06 01:26:20;;;;;;;24.10;21.40;;;;;;;18.01;57.14;99279.16;7008986;28;20205;-80
2022/05/06 01:29:41;;;;;;;29.07;20.23;;;;;;;17.87;57.56;99275.88;7009043;28;20681;-80
2022/05/06 01:33:05;;;;;;;27.77;20.60;;;;;;;17.96;57.42;99279.06;7007927;28;20232;-80
2022/05/06 01:36:27;;;;;;;28.13;21.90;;;;;;;17.72;57.69;99291.91;7006909;28;20216;-81
2022/05/06 01:39:52;;;;;;;25.47;21.30;;;;;;;17.68;58.22;99288.00;7007635;28;20263;-80
2022/05/06 01:43:16;;;;;;;31.73;22.70;;;;;;;17.78;58.13;99295.56;7008662;28;20231;-80
2022/05/06 01:46:38;;;;;;;29.33;22.70;;;;;;;17.81;57.95;99282.28;7008121;28;20418;-80
2022/05/06 01:50:01;;;;;;;29.70;21.60;;;;;;;17.88;57.95;99285.69;7008632;28;20235;-80
2022/05/06 01:53:24;;;;;;;30.70;22.17;;;;;;;17.82;57.65;99283.13;7008370;28;20269;-80
2022/05/06 01:56:49;;;;;;;28.70;22.07;;;;;;;17.74;57.84;99275.31;7007779;28;20307;-80
2022/05/06 02:00:12;;;;;;;28.80;22.43;;;;;;;17.92;57.76;99284.16;7008542;28;20668;-80
2022/05/06 02:07:13;;;;;;;29.67;22.27;;;;;;;17.89;57.44;99292.84;7008194;28;20211;-80
2022/05/06 02:10:37;;;;;;;30.23;22.53;;;;;;;17.90;57.39;99282.75;7009502;28;20273;-80
2022/05/06 02:14:00;;;;;;;25.93;21.27;;;;;;;17.67;57.44;99250.03;7008865;28;20230;-79
2022/05/06 02:17:21;;;;;;;28.23;21.57;;;;;;;17.57;57.72;99241.66;7008983;28;20692;-80
2022/05/06 02:20:43;;;;;;;32.37;22.67;;;;;;;17.84;57.58;99279.09;7009218;28;20215;-80
2022/05/06 02:24:05;;;;;;;26.47;21.23;;;;;;;17.73;57.32;99252.66;7009391;28;20212;-81
2022/05/06 02:27:27;;;;;;;28.43;21.47;;;;;;;17.82;57.58;99275.75;7009324;28;20280;-80
2022/05/06 02:34:29;;;;;;;31.83;22.03;;;;;;;17.51;57.83;99254.34;7010789;28;20215;-80
2022/05/06 02:37:50;;;;;;;26.33;21.30;;;;;;;17.57;58.12;99282.56;7016359;28;20682;-80
2022/05/06 02:41:13;;;;;;;28.53;21.47;;;;;;;17.52;58.60;99277.00;7038846;28;20237;-81
2022/05/06 02:44:35;;;;;;;32.00;22.47;;;;;;;17.47;58.56;99287.78;7038816;28;20201;-80
2022/05/06 02:47:58;;;;;;;29.50;22.07;;;;;;;17.32;58.59;99262.84;7038855;28;20207;-80
2022/05/06 02:51:20;;;;;;;26.97;21.43;;;;;;;17.49;58.39;99277.44;7040124;28;20230;-80
2022/05/06 02:54:41;;;;;;;31.17;22.73;;;;;;;17.66;57.95;99279.22;7045460;28;20222;-80
2022/05/06 02:58:03;;;;;;;29.73;22.53;;;;;;;17.64;58.10;99283.28;7053293;28;20207;-80
2022/05/06 03:01:25;;;;;;;27.43;21.87;;;;;;;17.73;57.97;99284.53;7042840;28;20224;-80
2022/05/06 03:04:48;;;;;;;30.43;21.50;;;;;;;17.36;58.83;99289.41;7050035;28;20212;-80
2022/05/06 03:08:10;;;;;;;30.33;22.00;;;;;;;17.70;58.12;99285.84;7049855;28;20671;-81
2022/05/06 03:11:31;;;;;;;27.17;20.60;;;;;;;17.67;58.25;99280.03;7038919;28;20224;-80
2022/05/06 03:14:53;;;;;;;30.10;22.50;;;;;;;17.67;58.13;99282.78;7034127;28;20225;-81
2022/05/06 03:18:14;;;;;;;31.60;22.13;;;;;;;17.64;58.26;99272.34;7033998;28;20302;-79
2022/05/06 03:21:37;;;;;;;32.97;22.23;;;;;;;17.47;58.78;99279.59;7034093;28;20227;-80
2022/05/06 03:24:59;;;;;;;28.70;21.87;;;;;;;17.49;58.58;99274.72;7032972;28;20299;-81
2022/05/06 03:28:20;;;;;;;30.63;21.77;;;;;;;17.52;58.52;99277.81;7034142;28;20241;-80
2022/05/06 03:31:42;;;;;;;28.53;22.37;;;;;;;17.71;57.82;99273.91;7039369;28;20216;-81
2022/05/06 03:35:04;;;;;;;27.63;21.13;;;;;;;17.72;57.50;99282.91;7038147;28;20275;-81
2022/05/06 03:38:27;;;;;;;28.50;21.47;;;;;;;17.51;58.03;99278.88;7035800;28;20548;-80
2022/05/06 03:41:49;;;;;;;26.43;20.50;;;;;;;17.59;57.80;99273.09;7036621;28;20227;-80
2022/05/06 03:45:11;;;;;;;27.87;21.13;;;;;;;17.50;57.95;99270.94;7037588;28;20577;-80
2022/05/06 03:48:35;;;;;;;25.33;20.77;;;;;;;17.25;57.97;99246.63;7038430;28;20245;-80
2022/05/06 03:51:55;;;;;;;24.87;20.00;;;;;;;17.48;58.04;99275.81;7040445;28;20226;-80
2022/05/06 03:55:19;;;;;;;30.53;20.90;;;;;;;17.46;58.04;99270.56;7039286;28;20229;-80
2022/05/06 03:58:41;;;;;;;24.33;20.20;;;;;;;17.53;58.08;99278.66;7038407;28;20205;-80
2022/05/06 04:02:02;;;;;;;27.73;20.23;;;;;;;17.20;58.30;99238.31;7038256;28;20317;-80
2022/05/06 04:05:24;;;;;;;28.53;19.63;;;;;;;17.64;58.26;99286.00;7037537;28;20208;-80
2022/05/06 04:08:46;;;;;;;27.53;20.67;;;;;;;17.47;57.83;99255.91;7016543;28;20202;-81
2022/05/06 04:12:10;;;;;;;25.30;19.93;;;;;;;17.68;58.03;99288.00;7010911;28;20228;-81
2022/05/06 04:15:33;;;;;;;27.47;20.17;;;;;;;17.51;58.24;99264.44;7011609;28;20578;-82
2022/05/06 04:18:55;;;;;;;27.47;19.37;;;;;;;17.51;58.05;99278.88;7013911;28;20207;-80
2022/05/06 04:25:56;;;;;;;21.00;18.33;;;;;;;17.58;58.02;99293.22;7040136;28;20198;-81
2022/05/06 04:29:19;;;;;;;24.33;19.37;;;;;;;17.44;58.26;99299.97;7041395;28;20214;-81
2022/05/06 04:32:41;;;;;;;22.93;19.00;;;;;;;17.54;58.21;99311.13;7021999;28;20228;-81
2022/05/06 04:36:04;;;;;;;23.73;18.53;;;;;;;17.35;58.62;99309.53;7014010;28;20234;-81
2022/05/06 04:39:25;;;;;;;21.10;17.77;;;;;;;17.37;58.21;99292.94;7024954;28;20296;-81
2022/05/06 04:42:47;;;;;;;21.00;18.00;;;;;;;17.49;58.40;99321.91;7041310;28;20249;-80
2022/05/06 04:46:10;;;;;;;25.70;17.57;;;;;;;17.28;57.93;99242.59;7040993;28;20246;-80
2022/05/06 04:49:31;;;;;;;25.63;18.10;;;;;;;17.57;58.04;99312.56;7023933;28;20207;-80
2022/05/06 04:52:53;;;;;;;20.83;16.30;;;;;;;17.66;57.71;99309.22;7013946;28;20218;-81
2022/05/06 04:56:14;;;;;;;19.07;16.73;;;;;;;17.62;57.93;99308.03;7013650;28;20290;-81
2022/05/06 04:59:36;;;;;;;21.73;16.67;;;;;;;17.31;58.30;99274.81;7014288;28;20196;-81
2022/05/06 05:03:00;;;;;;;17.20;15.40;;;;;;;17.44;58.01;99297.25;7043481;28;20568;-81
2022/05/06 05:06:21;;;;;;;21.40;15.50;;;;;;;17.14;58.81;99271.13;7050862;28;20247;-81
2022/05/06 05:09:43;;;;;;;19.20;14.10;;;;;;;17.46;58.16;99314.19;7047416;28;20201;-81
2022/05/06 05:13:04;;;;;;;18.97;14.30;;;;;;;17.77;57.91;99334.84;7038137;28;20222;-81
2022/05/06 05:16:27;;;;;;;17.17;14.03;;;;;;;17.37;58.07;99284.78;7038141;28;20230;-81
2022/05/06 05:19:50;;;;;;;18.17;14.77;;;;;;;17.47;58.55;99331.41;7035202;28;20213;-81
2022/05/06 05:23:11;;;;;;;20.53;14.67;;;;;;;17.47;58.69;99307.72;7036427;28;20218;-82
2022/05/06 05:26:33;;;;;;;19.83;14.63;;;;;;;17.71;58.47;99344.81;7036834;28;20297;-81
2022/05/06 05:29:55;;;;;;;15.20;12.93;;;;;;;17.64;58.59;99338.63;7031072;28;20209;-81
2022/05/06 05:33:16;;;;;;;17.67;14.27;;;;;;;17.58;58.55;99320.47;7028608;28;20225;-80
2022/05/06 05:36:40;;;;;;;18.23;14.57;;;;;;;17.37;59.95;99352.91;7008628;28;20235;-80
2022/05/06 05:40:02;;;;;;;15.77;14.17;;;;;;;17.42;59.88;99350.34;7009409;28;20216;-80
2022/05/06 05:50:43;;;;;;;16.60;14.80;;;;;;;17.50;60.25;99345.38;7042892;28;20188;-81
2022/05/06 05:54:06;;;;;;;16.90;14.73;;;;;;;17.66;60.27;99354.75;7017572;28;20230;-79
2022/05/06 05:57:28;;;;;;;21.17;15.67;;;;;;;17.39;60.90;99342.66;7041280;28;20295;-80
2022/05/06 06:00:50;;;;;;;19.80;15.67;;;;;;;17.47;61.11;99355.94;7034193;28;20274;-80
2022/05/06 06:04:11;;;;;;;20.77;15.70;;;;;;;17.60;60.28;99359.28;7019054;28;20195;-80
2022/05/06 06:07:33;;;;;;;16.37;14.57;;;;;;;17.52;60.55;99353.34;7017093;28;20198;-80
2022/05/06 06:10:56;;;;;;;18.90;15.67;;;;;;;17.44;60.66;99362.69;7020966;28;20204;-80
2022/05/06 06:14:17;;;;;;;16.47;13.97;;;;;;;17.31;60.74;99362.88;7011321;28;20222;-79
2022/05/06 06:17:39;;;;;;;16.77;14.17;;;;;;;17.09;60.47;99314.59;7010432;28;20220;-79
2022/05/06 06:21:01;;;;;;;16.47;14.07;;;;;;;17.53;60.38;99364.03;7012556;28;20208;-79
2022/05/06 06:24:22;;;;;;;14.97;13.47;;;;;;;17.31;60.71;99365.59;7011010;28;20208;-79
2022/05/06 06:27:45;;;;;;;15.60;13.00;;;;;;;17.56;60.04;99363.53;7023908;28;20219;-79
2022/05/06 06:31:07;;;;;;;14.97;12.50;;;;;;;17.15;60.25;99336.31;7038355;28;20317;-79
2022/05/06 06:34:29;;;;;;;16.57;13.63;;;;;;;17.34;60.18;99365.13;7032054;28;20243;-79
2022/05/06 06:37:50;;;;;;;17.20;13.30;;;;;;;17.25;60.26;99374.72;7013569;28;20297;-79
2022/05/06 06:41:12;;;;;;;17.43;12.93;;;;;;;17.05;60.15;99340.66;7010993;28;20235;-79
2022/05/06 06:44:35;;;;;;;17.53;12.77;;;;;;;17.51;59.46;99368.84;7013028;28;20212;-80
2022/05/06 06:47:58;;;;;;;15.37;12.90;;;;;;;17.53;59.12;99374.09;7019140;28;20203;-79
2022/05/06 06:51:19;;;;;;;16.30;12.40;;;;;;;17.41;59.72;99370.50;7018040;28;20257;-79
2022/05/06 06:54:41;;;;;;;14.80;12.87;;;;;;;17.49;59.11;99361.97;7047813;28;20225;-80
2022/05/06 06:58:03;;;;;;;17.50;13.40;;;;;;;17.65;58.70;99374.91;7044986;28;20203;-79
2022/05/06 07:01:26;;;;;;;13.53;12.13;;;;;;;17.47;59.11;99359.50;7039082;28;20237;-79
2022/05/06 07:04:48;;;;;;;16.13;12.73;;;;;;;17.45;58.73;99345.25;7026315;28;20235;-79
2022/05/06 07:11:55;;;;;;;13.37;11.87;;;;;;;17.83;58.22;99388.44;7023745;28;20282;-80
2022/05/06 07:15:16;;;;;;;13.10;11.53;;;;;;;17.80;58.03;99386.19;7028056;28;20204;-83
2022/05/06 07:18:39;;;;;;;13.90;11.60;;;;;;;17.66;57.59;99336.50;7023224;28;20212;-78
2022/05/06 07:22:01;;;;;;;12.00;10.43;;;;;;;17.48;58.14;99371.22;7010189;28;20220;-82
2022/05/06 07:25:23;;;;;;;13.77;11.27;;;;;;;18.09;56.90;99366.09;7011588;28;20218;-78
2022/05/06 07:28:44;;;;;;;14.23;11.63;;;;;;;17.92;57.16;99376.94;7037121;28;20204;-78
2022/05/06 07:32:08;;;;;;;14.53;12.40;;;;;;;17.68;57.65;99374.47;7052559;28;20219;-79
2022/05/06 07:35:31;;;;;;;13.53;11.90;;;;;;;17.89;57.27;99384.75;7048951;28;20319;-79
2022/05/06 07:38:52;;;;;;;14.47;11.80;;;;;;;17.76;56.90;99374.09;7045988;28;20211;-79
2022/05/06 07:42:14;;;;;;;12.80;11.47;;;;;;;17.75;57.42;99386.88;7052345;28;20232;-79
2022/05/06 07:45:36;;;;;;;18.00;12.47;;;;;;;17.72;57.42;99392.00;7032815;28;20233;-79
2022/05/06 07:48:58;;;;;;;12.57;10.80;;;;;;;17.68;57.26;99379.91;7007577;28;20208;-80
2022/05/06 07:52:21;;;;;;;12.97;10.70;;;;;;;17.71;57.10;99403.97;7009963;28;20230;-80
2022/05/06 07:55:43;;;;;;;12.90;10.87;;;;;;;17.81;57.07;99385.13;7008649;28;20280;-80
2022/05/06 07:59:05;;;;;;;13.17;11.77;;;;;;;17.53;57.41;99360.44;7004870;28;20204;-80
2022/05/06 08:06:06;;;;;;;14.17;10.77;;;;;;;17.79;56.80;99385.34;7031791;28;20201;-81
2022/05/06 08:09:29;;;;;;;15.77;11.23;;;;;;;17.63;57.48;99410.59;7033470;28;20205;-80
2022/05/06 08:12:51;;;;;;;14.23;10.97;;;;;;;18.04;56.06;99391.38;7025806;28;20236;-80
2022/05/06 08:16:12;;;;;;;13.83;10.37;;;;;;;17.51;56.37;99349.75;7005091;28;20241;-80
2022/05/06 08:19:34;;;;;;;13.20;10.57;;;;;;;17.88;55.97;99403.00;7006511;28;20237;-80
2022/05/06 08:22:55;;;;;;;12.07;10.20;;;;;;;18.01;55.67;99393.78;7005967;28;20256;-81
2022/05/06 08:26:18;;;;;;;11.33;9.77;;;;;;;18.02;55.43;99404.44;7005311;28;20239;-80
2022/05/06 08:29:41;;;;;;;12.27;9.57;;;;;;;18.09;55.73;99396.13;7021942;28;20206;-80
2022/05/06 08:33:03;;;;;;;14.53;10.87;;;;;;;18.31;55.21;99408.97;7033970;28;20224;-80
2022/05/06 08:36:24;;;;;;;12.90;10.27;;;;;;;17.97;55.29;99390.69;7033018;28;20220;-80
2022/05/06 08:39:46;;;;;;;23.93;17.13;;;;;;;18.22;55.38;99404.91;7033189;28;20203;-77
2022/05/06 08:43:09;;;;;;;20.57;18.07;;;;;;;17.97;55.59;99395.31;7033902;28;20730;-78
2022/05/06 08:53:55;;;;;;;23.10;18.57;;;;;;;17.78;56.46;99413.72;7020114;28;20220;-79
2022/05/06 08:57:17;;;;;;;16.57;12.67;;;;;;;18.35;54.81;99380.09;7032847;28;20232;-79
2022/05/06 09:00:40;;;;;;;12.97;11.43;;;;;;;18.76;54.48;99407.16;7032552;28;20319;-81
2022/05/06 09:04:01;;;;;;;10.57;8.97;;;;;;;19.26;52.77;99416.38;7032453;28;20780;-79
2022/05/06 09:07:25;;;;;;;13.80;10.63;;;;;;;19.24;51.65;99396.66;7004098;28;20212;-78
2022/05/06 09:11:00;;;;;;;10.83;9.20;;;;;;;18.73;54.05;99420.50;7003764;28;20362;-79
2022/05/06 09:16:39;;;;;;;11.40;9.27;;;;;;;18.61;54.61;99393.22;7004436;28;20208;-79
2022/05/06 09:18:07;;;;;;;9.37;8.50;;;;;;;19.05;53.69;99421.69;7003089;28;20255;-80
2022/05/06 09:21:29;;;;;;;10.87;9.47;;;;;;;19.02;53.56;99397.56;7005514;28;20236;-79
2022/05/06 09:24:54;;;;;;;9.40;8.23;;;;;;;19.10;51.62;99387.06;7030450;28;20204;-80
2022/05/06 09:28:22;;;;;;;10.33;9.13;;;;;;;19.05;52.53;99386.97;7037181;28;20639;-79
2022/05/06 09:31:44;;;;;;;9.90;8.90;;;;;;;19.07;52.44;99408.59;7038447;28;20684;-81
2022/05/06 09:35:13;;;;;;;10.60;9.47;;;;;;;18.88;53.79;99421.63;7035248;28;20224;-80
2022/05/06 09:38:35;;;;;;;11.30;9.87;;;;;;;19.54;51.62;99420.97;7010181;28;20196;-79
2022/05/06 09:42:03;;;;;;;16.67;13.70;;;;;;;19.39;51.00;99382.44;7015932;28;20220;-81
2022/05/06 09:45:29;;;;;;;9.30;8.13;;;;;;;19.57;52.36;99417.75;7022033;28;20218;-79
2022/05/06 09:48:55;;;;;;;9.03;7.97;;;;;;;20.23;49.75;99410.31;7009993;28;20190;-79
2022/05/06 09:52:19;;;;;;;11.23;8.73;;;;;;;20.65;49.46;99416.94;7010152;28;20229;-79
2022/05/06 09:55:42;;;;;;;9.30;7.97;;;;;;;20.64;48.88;99395.28;7009184;28;20225;-82
2022/05/06 09:59:03;;;;;;;7.53;6.63;;;;;;;20.76;46.83;99406.94;7009498;28;20250;-79
2022/05/06 10:02:25;;;;;;;10.07;7.10;;;;;;;21.10;46.65;99422.97;7008298;28;20233;-80
2022/05/06 10:05:46;;;;;;;11.60;8.87;;;;;;;21.38;45.22;99389.81;7008666;28;20290;-80
2022/05/06 10:09:09;;;;;;;26.03;14.30;;;;;;;21.61;45.14;99405.94;7009514;28;20217;-79
2022/05/06 10:12:36;;;;;;;9.53;7.43;;;;;;;21.51;45.12;99400.34;7009078;28;20232;-79
2022/05/06 10:15:58;;;;;;;9.40;7.40;;;;;;;21.74;44.69;99389.06;7008000;28;21201;-79
2022/05/06 10:19:27;;;;;;;9.10;6.73;;;;;;;21.77;45.15;99400.34;7020337;28;20600;-79
2022/05/06 10:23:02;;;;;;;7.17;6.47;;;;;;;22.04;44.09;99403.00;7008765;28;20270;-80
2022/05/06 10:26:45;;;;;;;7.47;6.67;;;;;;;22.30;42.84;99397.41;7008970;28;20223;-80
2022/05/06 10:34:10;;;;;;;11.57;6.70;;;;;;;22.60;42.64;99388.53;7008446;28;20206;-79
2022/05/06 10:37:37;;;;;;;8.67;6.90;;;;;;;22.69;43.14;99387.75;7009985;28;20261;-79
2022/05/06 10:40:59;;;;;;;8.60;6.23;;;;;;;22.87;41.99;99378.16;7035115;28;20210;-79
2022/05/06 10:44:34;;;;;;;9.60;6.70;;;;;;;22.48;43.09;99388.72;7036682;28;20846;-79
2022/05/06 10:47:55;;;;;;;7.67;6.30;;;;;;;22.24;42.83;99392.16;7036499;28;20203;-79
2022/05/06 10:51:21;;;;;;;7.90;6.27;;;;;;;22.93;42.21;99375.16;7035902;28;20237;-79
2022/05/06 10:54:43;;;;;;;8.13;6.10;;;;;;;22.01;41.47;99367.84;7036980;28;20240;-79
2022/05/06 10:58:07;;;;;;;6.63;5.87;;;;;;;22.98;41.19;99368.84;7020966;28;20317;-79
2022/05/06 11:01:32;;;;;;;6.40;5.50;;;;;;;23.03;40.22;99374.38;7036783;28;20216;-80
2022/05/06 11:04:56;;;;;;;7.70;5.63;;;;;;;23.25;39.81;99341.97;7035673;28;20282;-80
2022/05/06 11:08:20;;;;;;;7.53;5.90;;;;;;;23.50;39.10;99345.56;7035271;28;20204;-79
2022/05/06 11:11:42;;;;;;;6.47;5.87;;;;;;;23.97;38.90;99335.09;7036412;28;20239;-80
2022/05/06 11:15:06;;;;;;;6.53;5.70;;;;;;;24.11;39.13;99365.63;7029807;28;20210;-80
2022/05/06 11:18:29;;;;;;;10.80;6.13;;;;;;;24.24;37.58;99363.13;7010259;28;20244;-80
2022/05/06 11:21:50;;;;;;;7.40;5.83;;;;;;;24.68;37.73;99355.00;7007497;28;20230;-79
2022/05/06 11:25:12;;;;;;;7.93;5.60;;;;;;;25.33;35.45;99365.69;7007948;28;20615;-80
2022/05/06 11:28:35;;;;;;;9.33;4.93;;;;;;;25.31;35.04;99359.63;7006677;28;20209;-80
2022/05/06 11:31:57;;;;;;;6.60;5.67;;;;;;;24.30;36.03;99362.00;7010930;28;20214;-80
2022/05/06 11:35:47;;;;;;;9.50;6.27;;;;;;;21.37;41.96;99363.47;7014704;28;20224;-79
2022/05/06 11:39:13;;;;;;;7.97;5.43;;;;;;;23.66;36.82;99347.19;7007640;28;20217;-80
2022/05/06 11:42:37;;;;;;;6.50;4.77;;;;;;;23.25;35.48;99345.53;7008636;28;20717;-80
2022/05/06 11:49:38;;;;;;;8.60;5.07;;;;;;;22.90;35.64;99361.94;7007572;28;20189;-80
2022/05/06 11:53:01;;;;;;;7.20;5.07;;;;;;;22.89;36.99;99354.00;7010502;28;20323;-79
2022/05/06 11:56:23;;;;;;;9.27;5.33;;;;;;;22.83;35.92;99361.38;7035180;28;20683;-78
2022/05/06 11:59:45;;;;;;;6.27;4.87;;;;;;;23.40;36.86;99362.06;7035973;28;20210;-80
2022/05/06 12:03:08;;;;;;;6.33;4.67;;;;;;;24.38;34.12;99350.41;7051325;28;20225;-80
2022/05/06 12:06:31;;;;;;;8.17;5.30;;;;;;;24.42;33.17;99350.66;7046775;28;20216;-79
2022/05/06 12:09:55;;;;;;;7.03;4.50;;;;;;;24.33;33.92;99360.63;7041788;28;20215;-80
2022/05/06 12:13:17;;;;;;;6.97;5.27;;;;;;;23.34;34.66;99354.91;7038604;28;20228;-80
2022/05/06 12:16:54;;;;;;;5.70;4.97;;;;;;;22.76;35.21;99360.81;7049681;28;20341;-80
2022/05/06 12:20:32;;;;;;;5.97;5.40;;;;;;;23.33;34.00;99360.69;7034453;28;20189;-80
2022/05/06 12:23:56;;;;;;;5.53;5.03;;;;;;;22.43;36.63;99361.22;7033230;28;20232;-79
2022/05/06 12:27:25;;;;;;;7.40;5.10;;;;;;;23.91;34.32;99349.13;7033048;28;20285;-79
2022/05/06 12:30:47;;;;;;;6.53;5.20;;;;;;;23.76;33.98;99347.19;7027172;28;20294;-80
2022/05/06 12:34:09;;;;;;;7.30;5.27;;;;;;;22.88;34.49;99355.06;7006342;28;20207;-80
2022/05/06 12:37:30;;;;;;;5.97;5.30;;;;;;;23.22;34.69;99346.09;7006086;28;20268;-80
2022/05/06 12:40:52;;;;;;;8.00;6.30;;;;;;;24.39;32.61;99351.22;7006278;28;20315;-80
2022/05/06 12:44:20;;;;;;;8.13;5.33;;;;;;;23.35;33.93;99359.31;7006810;28;20216;-79
2022/05/06 12:51:21;;;;;;;5.47;4.97;;;;;;;23.77;33.85;99343.34;7009801;28;20243;-79
2022/05/06 12:54:42;;;;;;;9.07;5.33;;;;;;;23.67;34.77;99345.28;7006482;28;20686;-80
2022/05/06 12:58:04;;;;;;;5.67;5.00;;;;;;;23.25;33.71;99284.19;7005138;28;20227;-79
2022/05/06 13:01:28;;;;;;;5.97;5.13;;;;;;;23.34;34.96;99348.56;7005172;28;20904;-80
2022/05/06 13:04:50;;;;;;;6.60;4.37;;;;;;;24.38;33.83;99322.00;7005481;28;20237;-80
2022/05/06 13:08:12;;;;;;;7.57;4.93;;;;;;;24.96;33.25;99338.56;7013240;28;20214;-80
2022/05/06 13:11:33;;;;;;;6.70;5.20;;;;;;;24.53;32.93;99341.22;7008984;28;20284;-80
2022/05/06 13:14:55;;;;;;;5.93;5.13;;;;;;;23.76;32.85;99321.56;7008562;28;20212;-79
2022/05/06 13:18:18;;;;;;;7.20;4.87;;;;;;;24.10;32.73;99336.41;7005522;28;20239;-80
2022/05/06 13:21:39;;;;;;;6.20;5.47;;;;;;;23.05;34.50;99328.97;7005637;28;20322;-79
2022/05/06 13:25:02;;;;;;;6.47;5.10;;;;;;;22.59;34.30;99296.97;7006052;28;20210;-80
2022/05/06 13:28:23;;;;;;;5.73;4.70;;;;;;;23.15;35.12;99320.75;7016560;28;20207;-79
2022/05/06 13:31:45;;;;;;;8.53;4.87;;;;;;;23.44;34.13;99301.78;7005772;28;20224;-79
2022/05/06 13:35:09;;;;;;;5.60;5.07;;;;;;;22.99;34.87;99330.06;7005616;28;20667;-80
2022/05/06 13:38:31;;;;;;;8.43;5.00;;;;;;;24.14;33.95;99332.00;7004653;28;20235;-80
2022/05/06 13:41:53;;;;;;;10.13;5.60;;;;;;;24.15;32.41;99337.25;7005605;28;20242;-80
2022/05/06 13:45:14;;;;;;;5.90;4.47;;;;;;;24.50;32.53;99328.84;7015472;28;20269;-79
2022/05/06 13:48:37;;;;;;;6.70;5.17;;;;;;;24.48;32.54;99327.50;7004762;28;20202;-79
2022/05/06 13:51:59;;;;;;;6.50;5.07;;;;;;;23.89;34.51;99337.59;7005321;28;20227;-80
2022/05/06 13:55:21;;;;;;;5.97;5.03;;;;;;;24.26;32.62;99332.53;7005080;28;20223;-79
2022/05/06 14:02:22;;;;;;;7.30;5.17;;;;;;;23.55;33.25;99340.03;7003810;28;20865;-80
2022/05/06 14:05:43;;;;;;;6.97;5.57;;;;;;;23.65;33.72;99330.97;7004502;28;20224;-80
2022/05/06 14:09:06;;;;;;;6.40;4.43;;;;;;;23.71;34.11;99335.38;7008711;28;20211;-80
2022/05/06 14:12:28;;;;;;;7.23;5.57;;;;;;;23.63;33.21;99300.97;7010162;28;20245;-80
2022/05/06 14:15:51;;;;;;;5.70;5.10;;;;;;;23.43;33.47;99330.44;7009171;28;20205;-80
2022/05/06 14:19:12;;;;;;;6.80;5.67;;;;;;;22.92;33.63;99334.19;7009963;28;20212;-80
2022/05/06 14:22:34;;;;;;;8.37;5.27;;;;;;;23.00;34.70;99328.97;7013074;28;20233;-78
2022/05/06 14:25:57;;;;;;;7.43;5.57;;;;;;;22.74;34.45;99329.19;7025626;28;20200;-80
2022/05/06 14:29:19;;;;;;;5.83;5.20;;;;;;;22.75;34.93;99326.16;7037725;28;20216;-79
2022/05/06 14:32:40;;;;;;;6.27;5.13;;;;;;;23.10;35.19;99331.75;7037370;28;20225;-79
2022/05/06 14:36:03;;;;;;;5.33;4.77;;;;;;;23.92;33.37;99328.75;7038232;28;20318;-80
2022/05/06 14:39:25;;;;;;;5.70;5.13;;;;;;;24.14;33.16;99324.56;7037623;28;20199;-79
2022/05/06 14:42:48;;;;;;;8.23;5.43;;;;;;;23.88;33.86;99328.47;7028726;28;20255;-80
2022/05/06 14:46:09;;;;;;;4.90;4.33;;;;;;;23.93;34.33;99322.97;7009455;28;20202;-80
2022/05/06 14:49:31;;;;;;;6.93;4.60;;;;;;;22.87;35.12;99299.25;7009560;28;20672;-79
2022/05/06 14:52:53;;;;;;;6.27;4.50;;;;;;;23.33;35.27;99302.91;7013702;28;20260;-80
2022/05/06 14:56:14;;;;;;;6.03;4.60;;;;;;;23.27;36.19;99326.00;7028808;28;20239;-80
2022/05/06 14:59:37;;;;;;;6.67;4.80;;;;;;;23.53;34.29;99311.13;7016389;28;20229;-80
2022/05/06 15:02:59;;;;;;;5.83;5.20;;;;;;;23.52;34.69;99313.09;7026064;28;20275;-80
2022/05/06 15:06:20;;;;;;;6.07;5.10;;;;;;;23.44;34.66;99319.16;7035936;28;20209;-80
2022/05/06 15:09:42;;;;;;;8.40;5.03;;;;;;;23.67;35.13;99313.03;7037089;28;20193;-79
2022/05/06 15:13:04;;;;;;;7.73;4.37;;;;;;;24.42;34.17;99298.28;7037849;28;20224;-80
2022/05/06 15:16:27;;;;;;;7.93;4.67;;;;;;;24.37;33.64;99277.06;7036305;28;20321;-80
2022/05/06 15:19:49;;;;;;;6.80;5.33;;;;;;;23.18;34.57;99327.66;7032917;28;20223;-80
2022/05/06 15:23:11;;;;;;;5.20;4.70;;;;;;;23.52;34.79;99273.69;7013820;28;20231;-80
2022/05/06 15:26:32;;;;;;;5.33;4.83;;;;;;;23.55;35.15;99318.00;7008210;28;20220;-80
2022/05/06 15:29:54;;;;;;;10.87;5.17;;;;;;;23.97;34.46;99313.06;7015658;28;20215;-80
2022/05/06 15:33:17;;;;;;;6.10;5.30;;;;;;;23.26;35.92;99321.59;7007772;28;20261;-80
2022/05/06 15:36:38;;;;;;;7.00;5.20;;;;;;;23.33;36.11;99314.75;7008059;28;20251;-80
2022/05/06 15:40:00;;;;;;;5.57;5.07;;;;;;;23.62;34.43;99317.75;7033556;28;20294;-80
2022/05/06 15:43:21;;;;;;;6.47;4.97;;;;;;;23.47;35.32;99309.47;7037800;28;20279;-79
2022/05/06 15:46:43;;;;;;;6.93;4.77;;;;;;;24.22;33.36;99317.66;7037086;28;20234;-79
2022/05/06 15:50:08;;;;;;;7.50;5.00;;;;;;;23.89;34.03;99319.13;7040374;28;20234;-80
2022/05/06 15:53:29;;;;;;;9.70;5.20;;;;;;;22.31;37.12;99327.59;7036387;28;20664;-80
2022/05/06 15:56:51;;;;;;;8.90;5.37;;;;;;;22.54;36.42;99327.19;7023017;28;20502;-80
2022/05/06 16:00:13;;;;;;;8.23;5.00;;;;;;;22.72;35.62;99301.94;7035990;28;20354;-80
2022/05/06 16:03:35;;;;;;;6.97;5.10;;;;;;;22.85;35.65;99312.47;7036441;28;20228;-79
2022/05/06 16:06:58;;;;;;;9.07;5.17;;;;;;;23.23;35.25;99314.72;7035360;28;20294;-80
2022/05/06 16:10:19;;;;;;;5.07;4.50;;;;;;;23.71;35.42;99311.41;7036642;28;20232;-80
2022/05/06 16:13:41;;;;;;;6.40;4.97;;;;;;;23.97;35.46;99314.97;7038083;28;20225;-81
2022/05/06 16:17:05;;;;;;;7.40;4.17;;;;;;;24.19;34.82;99319.03;7034385;28;20217;-80
2022/05/06 16:20:29;;;;;;;4.90;4.40;;;;;;;23.48;35.10;99320.22;7051606;28;20218;-80
2022/05/06 16:23:53;;;;;;;6.40;4.70;;;;;;;22.77;35.66;99299.22;7051877;28;20232;-80
2022/05/06 16:27:15;;;;;;;6.93;4.40;;;;;;;23.33;35.34;99325.75;7051959;28;20207;-80
2022/05/06 16:30:38;;;;;;;6.23;4.43;;;;;;;23.28;35.22;99289.13;7052064;28;20206;-80